sensor_id;sensor_type;location;lat;lon;timestamp;temperature;humidity
23562;DHT22;11959;49.418;8.728;2022-11-23T00:01:22;7.90;99.90
23562;DHT22;11959;49.418;8.728;2022-11-23T00:03:50;8.00;99.90
23562;DHT22;11959;49.418;8.728;2022-11-23T00:06:16;8.00;99.90
23562;DHT22;11959;49.418;8.728;2022-11-23T00:08:42;8.00;99.90
23562;DHT22;11959;49.418;8.728;2022-11-23T00:11:08;8.10;99.90
23562;DHT22;11959;49.418;8.728;2022-11-23T00:13:34;8.10;99.90
23562;DHT22;11959;49.418;8.728;2022-11-23T00:16:13;8.10;99.90
23562;DHT22;11959;49.418;8.728;2022-11-23T00:18:39;8.10;99.90
23562;DHT22;11959;49.418;8.728;2022-11-23T00:21:06;8.10;99.90
23562;DHT22;11959;49.418;8.728;2022-11-23T00:23:33;8.10;99.90
23562;DHT22;11959;49.418;8.728;2022-11-23T00:25:58;8.10;99.90
23562;DHT22;11959;49.418;8.728;2022-11-23T00:28:24;8.10;99.90
23562;DHT22;11959;49.418;8.728;2022-11-23T00:30:50;8.10;99.90
23562;DHT22;11959;49.418;8.728;2022-11-23T00:33:16;8.00;99.90
23562;DHT22;11959;49.418;8.728;2022-11-23T00:35:42;7.90;99.90
23562;DHT22;11959;49.418;8.728;2022-11-23T00:38:08;8.00;99.90
23562;DHT22;11959;49.418;8.728;2022-11-23T00:40:33;8.00;99.90
23562;DHT22;11959;49.418;8.728;2022-11-23T00:42:59;8.00;99.90
23562;DHT22;11959;49.418;8.728;2022-11-23T00:45:25;8.00;99.90
23562;DHT22;11959;49.418;8.728;2022-11-23T00:47:50;7.90;99.90
23562;DHT22;11959;49.418;8.728;2022-11-23T00:50:16;7.90;99.90
23562;DHT22;11959;49.418;8.728;2022-11-23T00:52:42;7.90;99.90
23562;DHT22;11959;49.418;8.728;2022-11-23T00:55:08;7.90;99.90
23562;DHT22;11959;49.418;8.728;2022-11-23T00:57:33;7.90;99.90
23562;DHT22;11959;49.418;8.728;2022-11-23T00:59:59;7.90;99.90
23562;DHT22;11959;49.418;8.728;2022-11-23T01:02:25;7.90;99.90
23562;DHT22;11959;49.418;8.728;2022-11-23T01:04:51;7.90;99.90
23562;DHT22;11959;49.418;8.728;2022-11-23T01:07:16;7.90;99.90
23562;DHT22;11959;49.418;8.728;2022-11-23T01:09:42;7.90;99.90
23562;DHT22;11959;49.418;8.728;2022-11-23T01:12:08;7.90;99.90
23562;DHT22;11959;49.418;8.728;2022-11-23T01:14:33;7.90;99.90
23562;DHT22;11959;49.418;8.728;2022-11-23T01:16:59;7.80;99.90
23562;DHT22;11959;49.418;8.728;2022-11-23T01:19:25;7.80;99.90
23562;DHT22;11959;49.418;8.728;2022-11-23T01:21:50;7.80;99.90
23562;DHT22;11959;49.418;8.728;2022-11-23T01:24:18;7.80;99.90
23562;DHT22;11959;49.418;8.728;2022-11-23T01:26:45;7.80;99.90
23562;DHT22;11959;49.418;8.728;2022-11-23T01:29:11;7.80;99.90
23562;DHT22;11959;49.418;8.728;2022-11-23T01:31:37;7.80;99.90
23562;DHT22;11959;49.418;8.728;2022-11-23T01:34:03;7.90;99.90
23562;DHT22;11959;49.418;8.728;2022-11-23T01:36:33;7.80;99.90
23562;DHT22;11959;49.418;8.728;2022-11-23T01:39:00;7.80;99.90
23562;DHT22;11959;49.418;8.728;2022-11-23T01:41:30;7.80;99.90
23562;DHT22;11959;49.418;8.728;2022-11-23T01:43:56;7.80;99.90
23562;DHT22;11959;49.418;8.728;2022-11-23T01:46:22;7.70;99.90
23562;DHT22;11959;49.418;8.728;2022-11-23T01:48:52;7.70;99.90
23562;DHT22;11959;49.418;8.728;2022-11-23T01:51:26;7.70;99.90
23562;DHT22;11959;49.418;8.728;2022-11-23T01:53:56;7.70;99.90
23562;DHT22;11959;49.418;8.728;2022-11-23T01:56:29;7.70;99.90
23562;DHT22;11959;49.418;8.728;2022-11-23T01:58:57;7.80;99.90
23562;DHT22;11959;49.418;8.728;2022-11-23T02:01:25;7.80;99.90
23562;DHT22;11959;49.418;8.728;2022-11-23T02:03:50;7.90;99.90
23562;DHT22;11959;49.418;8.728;2022-11-23T02:06:20;7.80;99.90
23562;DHT22;11959;49.418;8.728;2022-11-23T02:08:47;7.80;99.90
23562;DHT22;11959;49.418;8.728;2022-11-23T02:11:15;7.80;99.90
23562;DHT22;11959;49.418;8.728;2022-11-23T02:13:42;7.80;99.90
23562;DHT22;11959;49.418;8.728;2022-11-23T02:16:09;7.90;99.90
23562;DHT22;11959;49.418;8.728;2022-11-23T02:18:36;7.90;99.90
23562;DHT22;11959;49.418;8.728;2022-11-23T02:21:03;7.90;99.90
23562;DHT22;11959;49.418;8.728;2022-11-23T02:26:10;7.90;99.90
23562;DHT22;11959;49.418;8.728;2022-11-23T02:29:11;7.90;99.90
23562;DHT22;11959;49.418;8.728;2022-11-23T02:31:38;7.90;99.90
23562;DHT22;11959;49.418;8.728;2022-11-23T02:34:04;7.90;99.90
23562;DHT22;11959;49.418;8.728;2022-11-23T02:36:50;7.90;99.90
23562;DHT22;11959;49.418;8.728;2022-11-23T02:39:32;8.00;99.90
23562;DHT22;11959;49.418;8.728;2022-11-23T02:41:59;8.00;99.90
23562;DHT22;11959;49.418;8.728;2022-11-23T02:47:09;8.00;99.90
23562;DHT22;11959;49.418;8.728;2022-11-23T02:49:36;7.90;99.90
23562;DHT22;11959;49.418;8.728;2022-11-23T02:52:02;7.90;99.90
23562;DHT22;11959;49.418;8.728;2022-11-23T02:54:28;7.90;99.90
23562;DHT22;11959;49.418;8.728;2022-11-23T02:56:54;7.80;99.90
23562;DHT22;11959;49.418;8.728;2022-11-23T02:59:20;7.80;99.90
23562;DHT22;11959;49.418;8.728;2022-11-23T03:01:47;7.80;99.90
23562;DHT22;11959;49.418;8.728;2022-11-23T03:04:13;7.80;99.90
23562;DHT22;11959;49.418;8.728;2022-11-23T03:06:39;7.80;99.90
23562;DHT22;11959;49.418;8.728;2022-11-23T03:09:05;7.80;99.90
23562;DHT22;11959;49.418;8.728;2022-11-23T03:11:31;7.70;99.90
23562;DHT22;11959;49.418;8.728;2022-11-23T03:13:57;7.70;99.90
23562;DHT22;11959;49.418;8.728;2022-11-23T03:16:23;7.80;99.90
23562;DHT22;11959;49.418;8.728;2022-11-23T03:18:49;7.70;99.90
23562;DHT22;11959;49.418;8.728;2022-11-23T03:21:15;7.70;99.90
23562;DHT22;11959;49.418;8.728;2022-11-23T03:23:41;7.70;99.90
23562;DHT22;11959;49.418;8.728;2022-11-23T03:26:07;7.70;99.90
23562;DHT22;11959;49.418;8.728;2022-11-23T03:28:32;7.70;99.90
23562;DHT22;11959;49.418;8.728;2022-11-23T03:30:58;7.70;99.90
23562;DHT22;11959;49.418;8.728;2022-11-23T03:33:23;7.70;99.90
23562;DHT22;11959;49.418;8.728;2022-11-23T03:35:49;7.70;99.90
23562;DHT22;11959;49.418;8.728;2022-11-23T03:38:15;7.80;99.90
23562;DHT22;11959;49.418;8.728;2022-11-23T03:40:43;7.70;99.90
23562;DHT22;11959;49.418;8.728;2022-11-23T03:43:10;7.70;99.90
23562;DHT22;11959;49.418;8.728;2022-11-23T03:45:35;7.70;99.90
23562;DHT22;11959;49.418;8.728;2022-11-23T03:48:01;7.60;99.90
23562;DHT22;11959;49.418;8.728;2022-11-23T03:50:27;7.60;99.90
23562;DHT22;11959;49.418;8.728;2022-11-23T03:52:54;7.60;99.90
23562;DHT22;11959;49.418;8.728;2022-11-23T03:55:20;7.70;99.90
23562;DHT22;11959;49.418;8.728;2022-11-23T03:57:49;7.70;99.90
23562;DHT22;11959;49.418;8.728;2022-11-23T04:00:15;7.70;99.90
23562;DHT22;11959;49.418;8.728;2022-11-23T04:02:41;7.70;99.90
23562;DHT22;11959;49.418;8.728;2022-11-23T04:05:07;7.60;99.90
23562;DHT22;11959;49.418;8.728;2022-11-23T04:07:33;7.60;99.90
23562;DHT22;11959;49.418;8.728;2022-11-23T04:09:59;7.60;99.90
23562;DHT22;11959;49.418;8.728;2022-11-23T04:12:25;7.60;99.90
23562;DHT22;11959;49.418;8.728;2022-11-23T04:14:51;7.70;99.90
23562;DHT22;11959;49.418;8.728;2022-11-23T04:17:17;7.70;99.90
23562;DHT22;11959;49.418;8.728;2022-11-23T04:19:43;7.60;99.90
23562;DHT22;11959;49.418;8.728;2022-11-23T04:22:09;7.60;99.90
23562;DHT22;11959;49.418;8.728;2022-11-23T04:24:35;7.60;99.90
23562;DHT22;11959;49.418;8.728;2022-11-23T04:27:00;7.60;99.90
23562;DHT22;11959;49.418;8.728;2022-11-23T04:29:26;7.60;99.90
23562;DHT22;11959;49.418;8.728;2022-11-23T04:31:52;7.60;99.90
23562;DHT22;11959;49.418;8.728;2022-11-23T04:34:18;7.60;99.90
23562;DHT22;11959;49.418;8.728;2022-11-23T04:36:43;7.60;99.90
23562;DHT22;11959;49.418;8.728;2022-11-23T04:39:10;7.60;99.90
23562;DHT22;11959;49.418;8.728;2022-11-23T04:41:37;7.60;99.90
23562;DHT22;11959;49.418;8.728;2022-11-23T04:44:03;7.70;99.90
23562;DHT22;11959;49.418;8.728;2022-11-23T04:46:28;7.60;99.90
23562;DHT22;11959;49.418;8.728;2022-11-23T04:48:54;7.60;99.90
23562;DHT22;11959;49.418;8.728;2022-11-23T04:51:20;7.60;99.90
23562;DHT22;11959;49.418;8.728;2022-11-23T04:53:46;7.60;99.90
23562;DHT22;11959;49.418;8.728;2022-11-23T04:56:12;7.60;99.90
23562;DHT22;11959;49.418;8.728;2022-11-23T04:58:37;7.60;99.90
23562;DHT22;11959;49.418;8.728;2022-11-23T05:01:04;7.60;99.90
23562;DHT22;11959;49.418;8.728;2022-11-23T05:03:30;7.60;99.90
23562;DHT22;11959;49.418;8.728;2022-11-23T05:06:00;7.60;99.90
23562;DHT22;11959;49.418;8.728;2022-11-23T05:08:25;7.60;99.90
23562;DHT22;11959;49.418;8.728;2022-11-23T05:10:51;7.60;99.90
23562;DHT22;11959;49.418;8.728;2022-11-23T05:13:17;7.60;99.90
23562;DHT22;11959;49.418;8.728;2022-11-23T05:15:42;7.60;99.90
23562;DHT22;11959;49.418;8.728;2022-11-23T05:18:10;7.60;99.90
23562;DHT22;11959;49.418;8.728;2022-11-23T05:20:36;7.60;99.90
23562;DHT22;11959;49.418;8.728;2022-11-23T05:23:02;7.60;99.90
23562;DHT22;11959;49.418;8.728;2022-11-23T05:25:27;7.50;99.90
23562;DHT22;11959;49.418;8.728;2022-11-23T05:27:53;7.60;99.90
23562;DHT22;11959;49.418;8.728;2022-11-23T05:30:19;7.50;99.90
23562;DHT22;11959;49.418;8.728;2022-11-23T05:32:45;7.50;99.90
23562;DHT22;11959;49.418;8.728;2022-11-23T05:35:11;7.50;99.90
23562;DHT22;11959;49.418;8.728;2022-11-23T05:37:37;7.50;99.90
23562;DHT22;11959;49.418;8.728;2022-11-23T05:40:04;7.50;99.90
23562;DHT22;11959;49.418;8.728;2022-11-23T05:42:30;7.50;99.90
23562;DHT22;11959;49.418;8.728;2022-11-23T05:44:56;7.50;99.90
23562;DHT22;11959;49.418;8.728;2022-11-23T05:47:21;7.60;99.90
23562;DHT22;11959;49.418;8.728;2022-11-23T05:49:47;7.60;99.90
23562;DHT22;11959;49.418;8.728;2022-11-23T05:52:14;7.50;99.90
23562;DHT22;11959;49.418;8.728;2022-11-23T05:54:40;7.50;99.90
23562;DHT22;11959;49.418;8.728;2022-11-23T05:57:06;7.40;99.90
23562;DHT22;11959;49.418;8.728;2022-11-23T05:59:31;7.40;99.90
23562;DHT22;11959;49.418;8.728;2022-11-23T06:01:57;7.40;99.90
23562;DHT22;11959;49.418;8.728;2022-11-23T06:04:23;7.40;99.90
23562;DHT22;11959;49.418;8.728;2022-11-23T06:06:48;7.30;99.90
23562;DHT22;11959;49.418;8.728;2022-11-23T06:09:14;7.30;99.90
23562;DHT22;11959;49.418;8.728;2022-11-23T06:11:40;7.40;99.90
23562;DHT22;11959;49.418;8.728;2022-11-23T06:14:05;7.30;99.90
23562;DHT22;11959;49.418;8.728;2022-11-23T06:16:31;7.30;99.90
23562;DHT22;11959;49.418;8.728;2022-11-23T06:18:57;7.30;99.90
23562;DHT22;11959;49.418;8.728;2022-11-23T06:21:22;7.20;99.90
23562;DHT22;11959;49.418;8.728;2022-11-23T06:23:48;7.20;99.90
23562;DHT22;11959;49.418;8.728;2022-11-23T06:26:14;7.20;99.90
23562;DHT22;11959;49.418;8.728;2022-11-23T06:28:40;7.20;99.90
23562;DHT22;11959;49.418;8.728;2022-11-23T06:31:06;7.20;99.90
23562;DHT22;11959;49.418;8.728;2022-11-23T06:33:33;7.20;99.90
23562;DHT22;11959;49.418;8.728;2022-11-23T06:36:00;7.20;99.90
23562;DHT22;11959;49.418;8.728;2022-11-23T06:38:26;7.10;99.90
23562;DHT22;11959;49.418;8.728;2022-11-23T06:40:52;7.20;99.90
23562;DHT22;11959;49.418;8.728;2022-11-23T06:43:17;7.10;99.90
23562;DHT22;11959;49.418;8.728;2022-11-23T06:45:43;7.10;99.90
23562;DHT22;11959;49.418;8.728;2022-11-23T06:48:10;7.10;99.90
23562;DHT22;11959;49.418;8.728;2022-11-23T06:50:35;7.10;99.90
23562;DHT22;11959;49.418;8.728;2022-11-23T06:53:01;7.10;99.90
23562;DHT22;11959;49.418;8.728;2022-11-23T06:55:27;7.00;99.90
23562;DHT22;11959;49.418;8.728;2022-11-23T06:57:52;7.00;99.90
23562;DHT22;11959;49.418;8.728;2022-11-23T07:00:18;7.00;99.90
23562;DHT22;11959;49.418;8.728;2022-11-23T07:02:50;7.00;99.90
23562;DHT22;11959;49.418;8.728;2022-11-23T07:05:17;7.00;99.90
23562;DHT22;11959;49.418;8.728;2022-11-23T07:07:42;7.00;99.90
23562;DHT22;11959;49.418;8.728;2022-11-23T07:10:08;7.00;99.90
23562;DHT22;11959;49.418;8.728;2022-11-23T07:12:34;7.00;99.90
23562;DHT22;11959;49.418;8.728;2022-11-23T07:14:59;7.00;99.90
23562;DHT22;11959;49.418;8.728;2022-11-23T07:17:25;7.00;99.90
23562;DHT22;11959;49.418;8.728;2022-11-23T07:19:51;6.90;99.90
23562;DHT22;11959;49.418;8.728;2022-11-23T07:22:16;6.90;99.90
23562;DHT22;11959;49.418;8.728;2022-11-23T07:24:42;6.90;99.90
23562;DHT22;11959;49.418;8.728;2022-11-23T07:27:07;6.90;99.90
23562;DHT22;11959;49.418;8.728;2022-11-23T07:29:33;6.90;99.90
23562;DHT22;11959;49.418;8.728;2022-11-23T07:31:59;7.00;99.90
23562;DHT22;11959;49.418;8.728;2022-11-23T07:34:26;6.90;99.90
23562;DHT22;11959;49.418;8.728;2022-11-23T07:36:52;6.90;99.90
23562;DHT22;11959;49.418;8.728;2022-11-23T07:39:17;6.90;99.90
23562;DHT22;11959;49.418;8.728;2022-11-23T07:41:43;6.80;99.90
23562;DHT22;11959;49.418;8.728;2022-11-23T07:44:09;6.90;99.90
23562;DHT22;11959;49.418;8.728;2022-11-23T07:46:34;6.80;99.90
23562;DHT22;11959;49.418;8.728;2022-11-23T07:49:00;6.80;99.90
23562;DHT22;11959;49.418;8.728;2022-11-23T07:51:28;6.80;99.90
23562;DHT22;11959;49.418;8.728;2022-11-23T07:53:53;6.70;99.90
23562;DHT22;11959;49.418;8.728;2022-11-23T07:56:19;6.70;99.90
23562;DHT22;11959;49.418;8.728;2022-11-23T07:58:45;6.70;99.90
23562;DHT22;11959;49.418;8.728;2022-11-23T08:01:17;6.70;99.90
23562;DHT22;11959;49.418;8.728;2022-11-23T08:03:44;6.60;99.90
23562;DHT22;11959;49.418;8.728;2022-11-23T08:06:10;6.60;99.90
23562;DHT22;11959;49.418;8.728;2022-11-23T08:08:36;6.60;99.90
23562;DHT22;11959;49.418;8.728;2022-11-23T08:11:04;6.60;99.90
23562;DHT22;11959;49.418;8.728;2022-11-23T08:13:30;6.60;99.90
23562;DHT22;11959;49.418;8.728;2022-11-23T08:15:56;6.60;99.90
23562;DHT22;11959;49.418;8.728;2022-11-23T08:18:23;6.60;99.90
23562;DHT22;11959;49.418;8.728;2022-11-23T08:20:49;6.50;99.90
23562;DHT22;11959;49.418;8.728;2022-11-23T08:23:14;6.60;99.90
23562;DHT22;11959;49.418;8.728;2022-11-23T08:25:40;6.60;99.90
23562;DHT22;11959;49.418;8.728;2022-11-23T08:28:06;6.60;99.90
23562;DHT22;11959;49.418;8.728;2022-11-23T08:30:33;6.60;99.90
23562;DHT22;11959;49.418;8.728;2022-11-23T08:33:02;6.60;99.90
23562;DHT22;11959;49.418;8.728;2022-11-23T08:35:29;6.60;99.90
23562;DHT22;11959;49.418;8.728;2022-11-23T08:37:54;6.60;99.90
23562;DHT22;11959;49.418;8.728;2022-11-23T08:40:20;6.60;99.90
23562;DHT22;11959;49.418;8.728;2022-11-23T08:42:46;6.60;99.90
23562;DHT22;11959;49.418;8.728;2022-11-23T08:45:11;6.60;99.90
23562;DHT22;11959;49.418;8.728;2022-11-23T08:47:37;6.60;99.90
23562;DHT22;11959;49.418;8.728;2022-11-23T08:50:03;6.60;99.90
23562;DHT22;11959;49.418;8.728;2022-11-23T08:52:29;6.60;99.90
23562;DHT22;11959;49.418;8.728;2022-11-23T08:54:55;6.60;99.90
23562;DHT22;11959;49.418;8.728;2022-11-23T08:57:22;6.60;99.90
23562;DHT22;11959;49.418;8.728;2022-11-23T08:59:48;6.60;99.90
23562;DHT22;11959;49.418;8.728;2022-11-23T09:02:14;6.70;99.90
23562;DHT22;11959;49.418;8.728;2022-11-23T09:04:40;6.60;99.90
23562;DHT22;11959;49.418;8.728;2022-11-23T09:07:06;6.60;99.90
23562;DHT22;11959;49.418;8.728;2022-11-23T09:09:32;6.60;99.90
23562;DHT22;11959;49.418;8.728;2022-11-23T09:11:57;6.60;99.90
23562;DHT22;11959;49.418;8.728;2022-11-23T09:14:23;6.70;99.90
23562;DHT22;11959;49.418;8.728;2022-11-23T09:16:49;6.70;99.90
23562;DHT22;11959;49.418;8.728;2022-11-23T09:19:14;6.70;99.90
23562;DHT22;11959;49.418;8.728;2022-11-23T09:21:40;6.70;99.90
23562;DHT22;11959;49.418;8.728;2022-11-23T09:24:09;6.80;99.90
23562;DHT22;11959;49.418;8.728;2022-11-23T09:26:35;6.70;99.90
23562;DHT22;11959;49.418;8.728;2022-11-23T09:29:03;6.70;99.90
23562;DHT22;11959;49.418;8.728;2022-11-23T09:31:28;6.70;99.90
23562;DHT22;11959;49.418;8.728;2022-11-23T09:33:54;6.80;99.90
23562;DHT22;11959;49.418;8.728;2022-11-23T09:36:20;6.80;99.90
23562;DHT22;11959;49.418;8.728;2022-11-23T09:38:49;6.80;99.90
23562;DHT22;11959;49.418;8.728;2022-11-23T09:44:01;6.80;99.90
23562;DHT22;11959;49.418;8.728;2022-11-23T09:49:21;6.80;99.90
23562;DHT22;11959;49.418;8.728;2022-11-23T09:51:48;6.80;99.90
23562;DHT22;11959;49.418;8.728;2022-11-23T09:54:31;6.80;99.90
23562;DHT22;11959;49.418;8.728;2022-11-23T09:56:58;6.80;99.90
23562;DHT22;11959;49.418;8.728;2022-11-23T09:59:33;6.80;99.90
23562;DHT22;11959;49.418;8.728;2022-11-23T10:02:01;6.80;99.90
23562;DHT22;11959;49.418;8.728;2022-11-23T10:04:32;6.90;99.90
23562;DHT22;11959;49.418;8.728;2022-11-23T10:07:10;6.90;99.90
23562;DHT22;11959;49.418;8.728;2022-11-23T10:15:27;6.90;99.90
23562;DHT22;11959;49.418;8.728;2022-11-23T10:18:21;6.90;99.90
23562;DHT22;11959;49.418;8.728;2022-11-23T10:21:02;7.00;99.90
23562;DHT22;11959;49.418;8.728;2022-11-23T10:26:12;7.10;99.90
23562;DHT22;11959;49.418;8.728;2022-11-23T10:28:38;7.10;99.90
23562;DHT22;11959;49.418;8.728;2022-11-23T10:36:14;7.10;99.90
23562;DHT22;11959;49.418;8.728;2022-11-23T10:38:40;7.10;99.90
23562;DHT22;11959;49.418;8.728;2022-11-23T10:41:13;7.10;99.90
23562;DHT22;11959;49.418;8.728;2022-11-23T10:46:30;7.10;99.90
23562;DHT22;11959;49.418;8.728;2022-11-23T10:49:29;7.10;99.90
23562;DHT22;11959;49.418;8.728;2022-11-23T10:52:24;7.10;99.90
23562;DHT22;11959;49.418;8.728;2022-11-23T10:54:56;7.10;99.90
23562;DHT22;11959;49.418;8.728;2022-11-23T10:57:43;7.10;99.90
23562;DHT22;11959;49.418;8.728;2022-11-23T11:00:19;7.20;99.90
23562;DHT22;11959;49.418;8.728;2022-11-23T11:02:48;7.10;99.90
23562;DHT22;11959;49.418;8.728;2022-11-23T11:07:51;7.20;99.90
23562;DHT22;11959;49.418;8.728;2022-11-23T11:10:41;7.10;99.90
23562;DHT22;11959;49.418;8.728;2022-11-23T11:16:02;7.20;99.90
23562;DHT22;11959;49.418;8.728;2022-11-23T11:18:36;7.20;99.90
23562;DHT22;11959;49.418;8.728;2022-11-23T11:21:20;7.20;99.90
23562;DHT22;11959;49.418;8.728;2022-11-23T11:23:52;7.20;99.90
23562;DHT22;11959;49.418;8.728;2022-11-23T11:26:23;7.20;99.90
23562;DHT22;11959;49.418;8.728;2022-11-23T11:28:50;7.20;99.90
23562;DHT22;11959;49.418;8.728;2022-11-23T11:34:20;7.30;99.90
23562;DHT22;11959;49.418;8.728;2022-11-23T11:36:58;7.30;99.90
23562;DHT22;11959;49.418;8.728;2022-11-23T11:42:40;7.40;99.90
23562;DHT22;11959;49.418;8.728;2022-11-23T11:45:20;7.40;99.90
23562;DHT22;11959;49.418;8.728;2022-11-23T11:48:06;7.40;99.90
23562;DHT22;11959;49.418;8.728;2022-11-23T11:50:41;7.40;99.90
23562;DHT22;11959;49.418;8.728;2022-11-23T11:53:16;7.50;99.90
23562;DHT22;11959;49.418;8.728;2022-11-23T11:56:00;7.50;99.90
23562;DHT22;11959;49.418;8.728;2022-11-23T11:58:28;7.50;99.90
23562;DHT22;11959;49.418;8.728;2022-11-23T12:03:51;7.60;99.90
23562;DHT22;11959;49.418;8.728;2022-11-23T12:06:31;7.60;99.90
23562;DHT22;11959;49.418;8.728;2022-11-23T12:09:02;7.60;99.90
23562;DHT22;11959;49.418;8.728;2022-11-23T12:11:31;7.70;99.90
23562;DHT22;11959;49.418;8.728;2022-11-23T12:14:02;7.70;99.90
23562;DHT22;11959;49.418;8.728;2022-11-23T12:19:19;7.70;99.90
23562;DHT22;11959;49.418;8.728;2022-11-23T12:38:51;7.90;99.90
23562;DHT22;11959;49.418;8.728;2022-11-23T12:49:53;7.90;99.90
23562;DHT22;11959;49.418;8.728;2022-11-23T13:00:48;7.90;99.90
23562;DHT22;11959;49.418;8.728;2022-11-23T13:03:37;7.90;99.90
23562;DHT22;11959;49.418;8.728;2022-11-23T13:23:08;8.00;99.90
23562;DHT22;11959;49.418;8.728;2022-11-23T13:25:34;8.00;99.90
23562;DHT22;11959;49.418;8.728;2022-11-23T13:40:42;8.00;99.90
23562;DHT22;11959;49.418;8.728;2022-11-23T13:43:32;8.00;99.90
23562;DHT22;11959;49.418;8.728;2022-11-23T13:46:23;8.00;99.90
23562;DHT22;11959;49.418;8.728;2022-11-23T13:48:54;8.00;99.90
23562;DHT22;11959;49.418;8.728;2022-11-23T13:53:58;7.90;99.90
23562;DHT22;11959;49.418;8.728;2022-11-23T13:59:27;7.90;99.90
23562;DHT22;11959;49.418;8.728;2022-11-23T14:04:38;7.90;99.90
23562;DHT22;11959;49.418;8.728;2022-11-23T14:07:17;7.90;99.90
23562;DHT22;11959;49.418;8.728;2022-11-23T14:15:02;8.00;99.90
23562;DHT22;11959;49.418;8.728;2022-11-23T14:26:23;8.20;99.90
23562;DHT22;11959;49.418;8.728;2022-11-23T14:32:02;8.20;99.90
23562;DHT22;11959;49.418;8.728;2022-11-23T14:35:25;8.10;99.90
23562;DHT22;11959;49.418;8.728;2022-11-23T14:40:35;8.00;99.90
23562;DHT22;11959;49.418;8.728;2022-11-23T14:43:14;7.90;99.90
23562;DHT22;11959;49.418;8.728;2022-11-23T14:45:44;7.90;99.90
23562;DHT22;11959;49.418;8.728;2022-11-23T14:48:28;7.90;99.90
23562;DHT22;11959;49.418;8.728;2022-11-23T14:51:00;7.80;99.90
23562;DHT22;11959;49.418;8.728;2022-11-23T14:53:34;7.90;99.90
23562;DHT22;11959;49.418;8.728;2022-11-23T14:56:00;7.80;99.90
23562;DHT22;11959;49.418;8.728;2022-11-23T14:58:29;7.80;99.90
23562;DHT22;11959;49.418;8.728;2022-11-23T15:01:00;7.80;99.90
23562;DHT22;11959;49.418;8.728;2022-11-23T15:03:28;7.80;99.90
23562;DHT22;11959;49.418;8.728;2022-11-23T15:06:02;7.80;99.90
23562;DHT22;11959;49.418;8.728;2022-11-23T15:08:48;7.90;99.90
23562;DHT22;11959;49.418;8.728;2022-11-23T15:11:20;7.80;99.90
23562;DHT22;11959;49.418;8.728;2022-11-23T15:13:50;7.70;99.90
23562;DHT22;11959;49.418;8.728;2022-11-23T15:16:18;7.70;99.90
23562;DHT22;11959;49.418;8.728;2022-11-23T15:18:45;7.60;99.90
23562;DHT22;11959;49.418;8.728;2022-11-23T15:23:53;7.50;99.90
23562;DHT22;11959;49.418;8.728;2022-11-23T15:26:23;7.50;99.90
23562;DHT22;11959;49.418;8.728;2022-11-23T15:28:50;7.40;99.90
23562;DHT22;11959;49.418;8.728;2022-11-23T15:31:18;7.40;99.90
23562;DHT22;11959;49.418;8.728;2022-11-23T15:33:49;7.40;99.90
23562;DHT22;11959;49.418;8.728;2022-11-23T15:36:23;7.30;99.90
23562;DHT22;11959;49.418;8.728;2022-11-23T15:38:51;7.30;99.90
23562;DHT22;11959;49.418;8.728;2022-11-23T15:41:17;7.30;99.90
23562;DHT22;11959;49.418;8.728;2022-11-23T15:43:59;7.30;99.90
23562;DHT22;11959;49.418;8.728;2022-11-23T15:46:36;7.30;99.90
23562;DHT22;11959;49.418;8.728;2022-11-23T15:49:03;7.30;99.90
23562;DHT22;11959;49.418;8.728;2022-11-23T15:51:40;7.30;99.90
23562;DHT22;11959;49.418;8.728;2022-11-23T15:54:23;7.30;99.90
23562;DHT22;11959;49.418;8.728;2022-11-23T15:56:54;7.20;99.90
23562;DHT22;11959;49.418;8.728;2022-11-23T15:59:30;7.30;99.90
23562;DHT22;11959;49.418;8.728;2022-11-23T16:01:58;7.30;99.90
23562;DHT22;11959;49.418;8.728;2022-11-23T16:06:52;7.40;99.90
23562;DHT22;11959;49.418;8.728;2022-11-23T16:09:39;7.40;99.90
23562;DHT22;11959;49.418;8.728;2022-11-23T16:12:23;7.40;99.90
23562;DHT22;11959;49.418;8.728;2022-11-23T16:14:51;7.50;99.90
23562;DHT22;11959;49.418;8.728;2022-11-23T16:17:25;7.50;99.90
23562;DHT22;11959;49.418;8.728;2022-11-23T16:19:56;7.60;99.90
23562;DHT22;11959;49.418;8.728;2022-11-23T16:22:26;7.60;99.90
23562;DHT22;11959;49.418;8.728;2022-11-23T16:27:42;7.70;99.90
23562;DHT22;11959;49.418;8.728;2022-11-23T16:30:38;7.70;99.90
23562;DHT22;11959;49.418;8.728;2022-11-23T16:33:04;7.70;99.90
23562;DHT22;11959;49.418;8.728;2022-11-23T16:35:30;7.70;99.90
23562;DHT22;11959;49.418;8.728;2022-11-23T16:37:55;7.70;99.90
23562;DHT22;11959;49.418;8.728;2022-11-23T16:40:21;7.80;99.90
23562;DHT22;11959;49.418;8.728;2022-11-23T16:42:52;7.80;99.90
23562;DHT22;11959;49.418;8.728;2022-11-23T16:45:18;7.90;99.90
23562;DHT22;11959;49.418;8.728;2022-11-23T16:50:51;7.80;99.90
23562;DHT22;11959;49.418;8.728;2022-11-23T16:53:18;7.90;99.90
23562;DHT22;11959;49.418;8.728;2022-11-23T16:55:51;7.90;99.90
23562;DHT22;11959;49.418;8.728;2022-11-23T16:58:18;7.80;99.90
23562;DHT22;11959;49.418;8.728;2022-11-23T17:00:44;7.90;99.90
23562;DHT22;11959;49.418;8.728;2022-11-23T17:03:18;7.90;99.90
23562;DHT22;11959;49.418;8.728;2022-11-23T17:05:44;7.80;99.90
23562;DHT22;11959;49.418;8.728;2022-11-23T17:08:10;7.90;99.90
23562;DHT22;11959;49.418;8.728;2022-11-23T17:10:37;7.80;99.90
23562;DHT22;11959;49.418;8.728;2022-11-23T17:13:04;7.90;99.90
23562;DHT22;11959;49.418;8.728;2022-11-23T17:15:30;7.90;99.90
23562;DHT22;11959;49.418;8.728;2022-11-23T17:17:56;7.90;99.90
23562;DHT22;11959;49.418;8.728;2022-11-23T17:20:21;7.90;99.90
23562;DHT22;11959;49.418;8.728;2022-11-23T17:22:48;7.90;99.90
23562;DHT22;11959;49.418;8.728;2022-11-23T17:25:16;7.90;99.90
23562;DHT22;11959;49.418;8.728;2022-11-23T17:27:43;7.90;99.90
23562;DHT22;11959;49.418;8.728;2022-11-23T17:30:15;7.90;99.90
23562;DHT22;11959;49.418;8.728;2022-11-23T17:32:41;7.90;99.90
23562;DHT22;11959;49.418;8.728;2022-11-23T17:35:07;7.90;99.90
23562;DHT22;11959;49.418;8.728;2022-11-23T17:37:32;8.00;99.90
23562;DHT22;11959;49.418;8.728;2022-11-23T17:39:58;7.90;99.90
23562;DHT22;11959;49.418;8.728;2022-11-23T17:42:24;7.90;99.90
23562;DHT22;11959;49.418;8.728;2022-11-23T17:44:49;7.90;99.90
23562;DHT22;11959;49.418;8.728;2022-11-23T17:47:26;7.90;99.90
23562;DHT22;11959;49.418;8.728;2022-11-23T17:49:53;7.80;99.90
23562;DHT22;11959;49.418;8.728;2022-11-23T17:52:20;7.80;99.90
23562;DHT22;11959;49.418;8.728;2022-11-23T17:54:46;7.80;99.90
23562;DHT22;11959;49.418;8.728;2022-11-23T17:57:16;7.80;99.90
23562;DHT22;11959;49.418;8.728;2022-11-23T17:59:43;7.80;99.90
23562;DHT22;11959;49.418;8.728;2022-11-23T18:02:09;7.80;99.90
23562;DHT22;11959;49.418;8.728;2022-11-23T18:04:35;7.80;99.90
23562;DHT22;11959;49.418;8.728;2022-11-23T18:07:01;7.70;99.90
23562;DHT22;11959;49.418;8.728;2022-11-23T18:09:26;7.70;99.90
23562;DHT22;11959;49.418;8.728;2022-11-23T18:11:52;7.70;99.90
23562;DHT22;11959;49.418;8.728;2022-11-23T18:14:18;7.70;99.90
23562;DHT22;11959;49.418;8.728;2022-11-23T18:16:46;7.70;99.90
23562;DHT22;11959;49.418;8.728;2022-11-23T18:19:12;7.70;99.90
23562;DHT22;11959;49.418;8.728;2022-11-23T18:21:39;7.70;99.90